sensor_id;sensor_type;location;lat;lon;timestamp;temperature;humidity
949;DHT22;461;51.436;7.312;2023-10-19T00:02:07;13.10;99.90
949;DHT22;461;51.436;7.312;2023-10-19T00:04:33;13.30;99.90
949;DHT22;461;51.436;7.312;2023-10-19T00:07:01;13.30;99.90
949;DHT22;461;51.436;7.312;2023-10-19T00:09:30;13.50;99.90
949;DHT22;461;51.436;7.312;2023-10-19T00:12:02;13.60;99.90
949;DHT22;461;51.436;7.312;2023-10-19T00:14:28;13.60;99.90
949;DHT22;461;51.436;7.312;2023-10-19T00:16:54;13.60;99.90
949;DHT22;461;51.436;7.312;2023-10-19T00:19:26;13.60;99.90
949;DHT22;461;51.436;7.312;2023-10-19T00:21:54;13.60;99.90
949;DHT22;461;51.436;7.312;2023-10-19T00:24:33;13.60;99.90
949;DHT22;461;51.436;7.312;2023-10-19T00:26:59;13.60;99.90
949;DHT22;461;51.436;7.312;2023-10-19T00:29:31;13.70;99.90
949;DHT22;461;51.436;7.312;2023-10-19T00:32:01;13.70;99.90
949;DHT22;461;51.436;7.312;2023-10-19T00:34:31;13.70;99.90
949;DHT22;461;51.436;7.312;2023-10-19T00:36:58;13.60;99.90
949;DHT22;461;51.436;7.312;2023-10-19T00:39:34;13.70;99.90
949;DHT22;461;51.436;7.312;2023-10-19T00:42:09;13.80;99.90
949;DHT22;461;51.436;7.312;2023-10-19T00:44:34;13.80;99.90
949;DHT22;461;51.436;7.312;2023-10-19T00:47:08;13.80;99.90
949;DHT22;461;51.436;7.312;2023-10-19T00:49:39;13.80;99.90
949;DHT22;461;51.436;7.312;2023-10-19T00:52:06;13.90;99.90
949;DHT22;461;51.436;7.312;2023-10-19T00:54:46;14.00;99.90
949;DHT22;461;51.436;7.312;2023-10-19T00:57:16;14.10;99.90
949;DHT22;461;51.436;7.312;2023-10-19T00:59:46;14.20;99.90
949;DHT22;461;51.436;7.312;2023-10-19T01:02:15;14.10;99.90
949;DHT22;461;51.436;7.312;2023-10-19T01:04:46;14.10;99.90
949;DHT22;461;51.436;7.312;2023-10-19T01:07:18;14.20;99.90
949;DHT22;461;51.436;7.312;2023-10-19T01:09:49;14.00;99.90
949;DHT22;461;51.436;7.312;2023-10-19T01:12:19;14.00;99.90
949;DHT22;461;51.436;7.312;2023-10-19T01:17:38;14.30;99.90
949;DHT22;461;51.436;7.312;2023-10-19T01:20:12;14.40;99.90
949;DHT22;461;51.436;7.312;2023-10-19T01:23:06;14.40;99.90
949;DHT22;461;51.436;7.312;2023-10-19T01:25:45;14.40;99.90
949;DHT22;461;51.436;7.312;2023-10-19T01:28:20;14.60;99.90
949;DHT22;461;51.436;7.312;2023-10-19T01:30:50;14.70;99.90
949;DHT22;461;51.436;7.312;2023-10-19T01:33:20;14.80;99.90
949;DHT22;461;51.436;7.312;2023-10-19T01:35:46;14.80;99.90
949;DHT22;461;51.436;7.312;2023-10-19T01:38:31;15.00;99.90
949;DHT22;461;51.436;7.312;2023-10-19T01:41:01;15.00;99.90
949;DHT22;461;51.436;7.312;2023-10-19T01:43:29;15.20;99.90
949;DHT22;461;51.436;7.312;2023-10-19T01:45:59;15.10;99.90
949;DHT22;461;51.436;7.312;2023-10-19T01:48:30;15.10;99.90
949;DHT22;461;51.436;7.312;2023-10-19T01:51:04;15.00;99.90
949;DHT22;461;51.436;7.312;2023-10-19T01:53:31;15.00;99.90
949;DHT22;461;51.436;7.312;2023-10-19T01:55:58;15.20;99.90
949;DHT22;461;51.436;7.312;2023-10-19T01:58:27;15.20;99.90
949;DHT22;461;51.436;7.312;2023-10-19T02:00:55;15.10;99.90
949;DHT22;461;51.436;7.312;2023-10-19T02:03:26;15.10;99.90
949;DHT22;461;51.436;7.312;2023-10-19T02:06:00;15.00;99.90
949;DHT22;461;51.436;7.312;2023-10-19T02:08:32;15.10;99.90
949;DHT22;461;51.436;7.312;2023-10-19T02:10:58;15.30;99.90
949;DHT22;461;51.436;7.312;2023-10-19T02:13:28;15.40;99.90
949;DHT22;461;51.436;7.312;2023-10-19T02:15:54;15.30;99.90
949;DHT22;461;51.436;7.312;2023-10-19T02:18:19;15.40;99.90
949;DHT22;461;51.436;7.312;2023-10-19T02:20:45;15.30;99.90
949;DHT22;461;51.436;7.312;2023-10-19T02:23:14;15.40;99.90
949;DHT22;461;51.436;7.312;2023-10-19T02:25:40;15.30;99.90
949;DHT22;461;51.436;7.312;2023-10-19T02:28:06;15.30;99.90
949;DHT22;461;51.436;7.312;2023-10-19T02:30:33;15.40;99.90
949;DHT22;461;51.436;7.312;2023-10-19T02:33:01;15.20;99.90
949;DHT22;461;51.436;7.312;2023-10-19T02:35:29;15.30;99.90
949;DHT22;461;51.436;7.312;2023-10-19T02:37:55;15.20;99.90
949;DHT22;461;51.436;7.312;2023-10-19T02:40:21;15.30;99.90
949;DHT22;461;51.436;7.312;2023-10-19T02:42:49;15.50;99.90
949;DHT22;461;51.436;7.312;2023-10-19T02:45:19;15.60;99.90
949;DHT22;461;51.436;7.312;2023-10-19T02:47:45;15.60;99.90
949;DHT22;461;51.436;7.312;2023-10-19T02:50:12;15.60;99.90
949;DHT22;461;51.436;7.312;2023-10-19T02:52:47;15.60;99.90
949;DHT22;461;51.436;7.312;2023-10-19T02:55:13;15.50;99.90
949;DHT22;461;51.436;7.312;2023-10-19T02:57:42;15.70;99.90
949;DHT22;461;51.436;7.312;2023-10-19T03:00:12;15.80;99.90
949;DHT22;461;51.436;7.312;2023-10-19T03:02:40;15.70;99.90
949;DHT22;461;51.436;7.312;2023-10-19T03:05:06;15.90;99.90
949;DHT22;461;51.436;7.312;2023-10-19T03:07:51;15.90;99.90
949;DHT22;461;51.436;7.312;2023-10-19T03:10:18;16.10;99.90
949;DHT22;461;51.436;7.312;2023-10-19T03:13:00;16.00;99.90
949;DHT22;461;51.436;7.312;2023-10-19T03:15:27;16.00;99.90
949;DHT22;461;51.436;7.312;2023-10-19T03:17:56;16.00;99.90
949;DHT22;461;51.436;7.312;2023-10-19T03:20:21;16.10;99.90
949;DHT22;461;51.436;7.312;2023-10-19T03:22:50;16.10;99.90
949;DHT22;461;51.436;7.312;2023-10-19T03:25:16;16.10;99.90
949;DHT22;461;51.436;7.312;2023-10-19T03:28:08;16.10;99.90
949;DHT22;461;51.436;7.312;2023-10-19T03:30:37;16.10;99.90
949;DHT22;461;51.436;7.312;2023-10-19T03:33:07;16.10;99.90
949;DHT22;461;51.436;7.312;2023-10-19T03:35:38;16.00;99.90
949;DHT22;461;51.436;7.312;2023-10-19T03:38:07;16.00;99.90
949;DHT22;461;51.436;7.312;2023-10-19T03:40:40;15.90;99.90
949;DHT22;461;51.436;7.312;2023-10-19T03:43:06;16.00;99.90
949;DHT22;461;51.436;7.312;2023-10-19T03:45:43;16.00;99.90
949;DHT22;461;51.436;7.312;2023-10-19T03:48:13;16.00;99.90
949;DHT22;461;51.436;7.312;2023-10-19T03:50:41;16.00;99.90
949;DHT22;461;51.436;7.312;2023-10-19T03:53:08;16.00;99.90
949;DHT22;461;51.436;7.312;2023-10-19T03:55:37;16.00;99.90
949;DHT22;461;51.436;7.312;2023-10-19T03:58:04;16.00;99.90
949;DHT22;461;51.436;7.312;2023-10-19T04:00:30;16.00;99.90
949;DHT22;461;51.436;7.312;2023-10-19T04:02:59;16.10;99.90
949;DHT22;461;51.436;7.312;2023-10-19T04:05:25;16.10;99.90
949;DHT22;461;51.436;7.312;2023-10-19T04:07:52;16.10;99.90
949;DHT22;461;51.436;7.312;2023-10-19T04:10:21;16.10;99.90
949;DHT22;461;51.436;7.312;2023-10-19T04:12:56;16.10;99.90
949;DHT22;461;51.436;7.312;2023-10-19T04:15:25;16.10;99.90
949;DHT22;461;51.436;7.312;2023-10-19T04:17:52;16.10;99.90
949;DHT22;461;51.436;7.312;2023-10-19T04:20:20;16.10;99.90
949;DHT22;461;51.436;7.312;2023-10-19T04:23:01;16.20;99.90
949;DHT22;461;51.436;7.312;2023-10-19T04:25:36;16.30;99.90
949;DHT22;461;51.436;7.312;2023-10-19T04:28:01;16.40;99.90
949;DHT22;461;51.436;7.312;2023-10-19T04:30:28;16.50;99.90
949;DHT22;461;51.436;7.312;2023-10-19T04:32:58;16.40;99.90
949;DHT22;461;51.436;7.312;2023-10-19T04:35:27;16.20;99.90
949;DHT22;461;51.436;7.312;2023-10-19T04:37:58;16.00;99.90
949;DHT22;461;51.436;7.312;2023-10-19T04:40:25;16.00;99.90
949;DHT22;461;51.436;7.312;2023-10-19T04:42:52;16.10;99.90
949;DHT22;461;51.436;7.312;2023-10-19T04:45:19;16.00;99.90
949;DHT22;461;51.436;7.312;2023-10-19T04:47:45;16.10;99.90
949;DHT22;461;51.436;7.312;2023-10-19T04:50:12;16.10;99.90
949;DHT22;461;51.436;7.312;2023-10-19T04:52:38;16.10;99.90
949;DHT22;461;51.436;7.312;2023-10-19T04:55:04;16.30;99.90
949;DHT22;461;51.436;7.312;2023-10-19T04:57:30;16.40;99.90
949;DHT22;461;51.436;7.312;2023-10-19T04:59:56;16.30;99.90
949;DHT22;461;51.436;7.312;2023-10-19T05:02:23;16.30;99.90
949;DHT22;461;51.436;7.312;2023-10-19T05:04:49;16.30;99.90
949;DHT22;461;51.436;7.312;2023-10-19T05:07:15;16.20;99.90
949;DHT22;461;51.436;7.312;2023-10-19T05:23:45;15.80;99.90
949;DHT22;461;51.436;7.312;2023-10-19T05:26:15;15.80;99.90
949;DHT22;461;51.436;7.312;2023-10-19T05:28:45;15.90;99.90
949;DHT22;461;51.436;7.312;2023-10-19T05:31:30;15.90;99.90
949;DHT22;461;51.436;7.312;2023-10-19T05:48:01;15.80;99.90
949;DHT22;461;51.436;7.312;2023-10-19T05:50:37;15.80;99.90
949;DHT22;461;51.436;7.312;2023-10-19T05:56:05;15.80;99.90
949;DHT22;461;51.436;7.312;2023-10-19T05:58:46;15.70;99.90
949;DHT22;461;51.436;7.312;2023-10-19T06:02:00;15.70;99.90
949;DHT22;461;51.436;7.312;2023-10-19T06:46:05;16.20;99.90
949;DHT22;461;51.436;7.312;2023-10-19T06:59:05;16.20;99.90
949;DHT22;461;51.436;7.312;2023-10-19T07:05:31;16.20;99.90
949;DHT22;461;51.436;7.312;2023-10-19T07:07:46;16.20;99.90
